sensor_id;sensor_type;location;lat;lon;timestamp;P1;durP1;ratioP1;P2;durP2;ratioP2
11735;SDS011;5924;51.398;7.088;2022-09-09T00:02:12;1.00;;;1.00;;
11735;SDS011;5924;51.398;7.088;2022-09-09T00:05:12;0.87;;;0.87;;
11735;SDS011;5924;51.398;7.088;2022-09-09T00:07:48;1.20;;;1.10;;
11735;SDS011;5924;51.398;7.088;2022-09-09T00:10:37;2.00;;;0.80;;
11735;SDS011;5924;51.398;7.088;2022-09-09T00:15:42;2.93;;;1.17;;
11735;SDS011;5924;51.398;7.088;2022-09-09T00:21:14;0.70;;;0.70;;
11735;SDS011;5924;51.398;7.088;2022-09-09T00:23:51;0.80;;;0.80;;
11735;SDS011;5924;51.398;7.088;2022-09-09T00:26:40;0.70;;;0.70;;
11735;SDS011;5924;51.398;7.088;2022-09-09T00:29:21;3.50;;;0.90;;
11735;SDS011;5924;51.398;7.088;2022-09-09T00:32:15;2.33;;;1.30;;
11735;SDS011;5924;51.398;7.088;2022-09-09T00:34:51;1.00;;;1.00;;
11735;SDS011;5924;51.398;7.088;2022-09-09T00:37:20;0.93;;;0.80;;
11735;SDS011;5924;51.398;7.088;2022-09-09T00:39:50;0.80;;;0.80;;
11735;SDS011;5924;51.398;7.088;2022-09-09T00:47:40;0.90;;;0.90;;
11735;SDS011;5924;51.398;7.088;2022-09-09T00:58:50;0.70;;;0.70;;
11735;SDS011;5924;51.398;7.088;2022-09-09T01:01:36;2.77;;;1.43;;
11735;SDS011;5924;51.398;7.088;2022-09-09T01:04:04;1.10;;;1.10;;
11735;SDS011;5924;51.398;7.088;2022-09-09T01:06:40;1.53;;;1.43;;
11735;SDS011;5924;51.398;7.088;2022-09-09T01:09:18;1.53;;;1.20;;
11735;SDS011;5924;51.398;7.088;2022-09-09T01:12:17;1.20;;;1.20;;
11735;SDS011;5924;51.398;7.088;2022-09-09T01:14:50;1.17;;;1.17;;
11735;SDS011;5924;51.398;7.088;2022-09-09T01:17:21;1.60;;;1.17;;
11735;SDS011;5924;51.398;7.088;2022-09-09T01:28:48;1.50;;;1.40;;
11735;SDS011;5924;51.398;7.088;2022-09-09T01:31:19;1.60;;;1.37;;
11735;SDS011;5924;51.398;7.088;2022-09-09T01:33:48;3.13;;;2.10;;
11735;SDS011;5924;51.398;7.088;2022-09-09T01:39:09;4.30;;;1.70;;
11735;SDS011;5924;51.398;7.088;2022-09-09T01:41:35;10.00;;;2.30;;
11735;SDS011;5924;51.398;7.088;2022-09-09T01:44:01;2.30;;;2.20;;
11735;SDS011;5924;51.398;7.088;2022-09-09T01:46:28;2.60;;;2.40;;
11735;SDS011;5924;51.398;7.088;2022-09-09T01:48:55;2.97;;;2.77;;
11735;SDS011;5924;51.398;7.088;2022-09-09T01:51:21;2.53;;;2.03;;
11735;SDS011;5924;51.398;7.088;2022-09-09T01:53:47;4.93;;;3.10;;
11735;SDS011;5924;51.398;7.088;2022-09-09T01:56:29;4.20;;;2.80;;
11735;SDS011;5924;51.398;7.088;2022-09-09T02:06:53;2.70;;;2.27;;
11735;SDS011;5924;51.398;7.088;2022-09-09T02:09:24;2.77;;;2.57;;
11735;SDS011;5924;51.398;7.088;2022-09-09T02:11:54;4.70;;;3.00;;
11735;SDS011;5924;51.398;7.088;2022-09-09T02:14:27;5.90;;;2.90;;
11735;SDS011;5924;51.398;7.088;2022-09-09T02:17:01;4.43;;;2.90;;
11735;SDS011;5924;51.398;7.088;2022-09-09T02:19:44;5.87;;;2.93;;
11735;SDS011;5924;51.398;7.088;2022-09-09T02:22:15;4.70;;;3.67;;
11735;SDS011;5924;51.398;7.088;2022-09-09T02:24:43;5.03;;;3.47;;
11735;SDS011;5924;51.398;7.088;2022-09-09T02:27:11;3.43;;;3.13;;
11735;SDS011;5924;51.398;7.088;2022-09-09T02:29:39;6.23;;;3.73;;
11735;SDS011;5924;51.398;7.088;2022-09-09T02:32:08;6.30;;;3.60;;
11735;SDS011;5924;51.398;7.088;2022-09-09T02:34:47;21.73;;;4.53;;
11735;SDS011;5924;51.398;7.088;2022-09-09T02:37:19;4.53;;;2.90;;
11735;SDS011;5924;51.398;7.088;2022-09-09T02:39:46;6.13;;;2.90;;
11735;SDS011;5924;51.398;7.088;2022-09-09T02:42:12;3.90;;;3.23;;
11735;SDS011;5924;51.398;7.088;2022-09-09T02:44:40;3.13;;;2.83;;
11735;SDS011;5924;51.398;7.088;2022-09-09T02:47:22;7.43;;;3.67;;
11735;SDS011;5924;51.398;7.088;2022-09-09T02:50:02;4.80;;;3.60;;
11735;SDS011;5924;51.398;7.088;2022-09-09T02:52:42;3.70;;;3.27;;
11735;SDS011;5924;51.398;7.088;2022-09-09T02:58:16;3.57;;;2.77;;
11735;SDS011;5924;51.398;7.088;2022-09-09T03:00:44;2.90;;;2.70;;
11735;SDS011;5924;51.398;7.088;2022-09-09T03:03:11;4.33;;;2.80;;
11735;SDS011;5924;51.398;7.088;2022-09-09T03:05:37;2.37;;;2.37;;
11735;SDS011;5924;51.398;7.088;2022-09-09T03:08:03;2.73;;;2.53;;
11735;SDS011;5924;51.398;7.088;2022-09-09T03:10:30;2.60;;;1.70;;
11735;SDS011;5924;51.398;7.088;2022-09-09T03:12:57;4.20;;;2.77;;
11735;SDS011;5924;51.398;7.088;2022-09-09T03:15:22;2.43;;;2.20;;
11735;SDS011;5924;51.398;7.088;2022-09-09T03:17:48;3.90;;;2.27;;
11735;SDS011;5924;51.398;7.088;2022-09-09T03:20:14;2.50;;;2.30;;
11735;SDS011;5924;51.398;7.088;2022-09-09T03:22:39;3.73;;;2.57;;
11735;SDS011;5924;51.398;7.088;2022-09-09T03:25:05;2.10;;;1.90;;
11735;SDS011;5924;51.398;7.088;2022-09-09T03:27:31;2.27;;;2.10;;
11735;SDS011;5924;51.398;7.088;2022-09-09T03:29:57;5.80;;;2.67;;
11735;SDS011;5924;51.398;7.088;2022-09-09T03:32:23;1.83;;;1.83;;
11735;SDS011;5924;51.398;7.088;2022-09-09T03:34:51;4.00;;;2.23;;
11735;SDS011;5924;51.398;7.088;2022-09-09T03:37:17;4.03;;;2.07;;
11735;SDS011;5924;51.398;7.088;2022-09-09T03:39:44;3.33;;;1.70;;
11735;SDS011;5924;51.398;7.088;2022-09-09T03:42:13;7.50;;;2.50;;
11735;SDS011;5924;51.398;7.088;2022-09-09T03:44:40;5.97;;;2.00;;
11735;SDS011;5924;51.398;7.088;2022-09-09T03:47:07;2.10;;;1.70;;
11735;SDS011;5924;51.398;7.088;2022-09-09T03:49:33;11.47;;;2.03;;
11735;SDS011;5924;51.398;7.088;2022-09-09T03:51:58;2.07;;;1.63;;
11735;SDS011;5924;51.398;7.088;2022-09-09T03:54:26;3.43;;;1.70;;
11735;SDS011;5924;51.398;7.088;2022-09-09T03:56:52;2.20;;;1.90;;
11735;SDS011;5924;51.398;7.088;2022-09-09T03:59:18;3.83;;;1.80;;
11735;SDS011;5924;51.398;7.088;2022-09-09T04:01:43;2.83;;;2.40;;
11735;SDS011;5924;51.398;7.088;2022-09-09T04:04:10;2.53;;;1.93;;
11735;SDS011;5924;51.398;7.088;2022-09-09T04:06:37;5.43;;;2.40;;
11735;SDS011;5924;51.398;7.088;2022-09-09T04:09:02;2.43;;;2.17;;
11735;SDS011;5924;51.398;7.088;2022-09-09T04:11:28;4.30;;;1.90;;
11735;SDS011;5924;51.398;7.088;2022-09-09T04:13:54;1.73;;;1.63;;
11735;SDS011;5924;51.398;7.088;2022-09-09T04:16:20;4.13;;;2.30;;
11735;SDS011;5924;51.398;7.088;2022-09-09T04:18:45;4.33;;;2.47;;
11735;SDS011;5924;51.398;7.088;2022-09-09T04:21:11;2.70;;;2.03;;
11735;SDS011;5924;51.398;7.088;2022-09-09T04:23:37;7.63;;;2.20;;
11735;SDS011;5924;51.398;7.088;2022-09-09T04:26:04;4.00;;;2.00;;
11735;SDS011;5924;51.398;7.088;2022-09-09T04:28:31;4.50;;;2.07;;
11735;SDS011;5924;51.398;7.088;2022-09-09T04:31:05;3.37;;;2.80;;
11735;SDS011;5924;51.398;7.088;2022-09-09T04:33:32;4.63;;;3.00;;
11735;SDS011;5924;51.398;7.088;2022-09-09T04:35:58;3.67;;;2.43;;
11735;SDS011;5924;51.398;7.088;2022-09-09T04:38:23;2.47;;;2.37;;
11735;SDS011;5924;51.398;7.088;2022-09-09T04:40:51;4.20;;;2.10;;
11735;SDS011;5924;51.398;7.088;2022-09-09T04:43:18;2.30;;;2.20;;
11735;SDS011;5924;51.398;7.088;2022-09-09T04:45:46;6.63;;;2.30;;
11735;SDS011;5924;51.398;7.088;2022-09-09T04:48:13;3.43;;;2.33;;
11735;SDS011;5924;51.398;7.088;2022-09-09T04:50:39;4.67;;;2.63;;
11735;SDS011;5924;51.398;7.088;2022-09-09T04:53:05;4.97;;;2.17;;
11735;SDS011;5924;51.398;7.088;2022-09-09T04:55:32;2.73;;;2.50;;
11735;SDS011;5924;51.398;7.088;2022-09-09T04:58:06;7.27;;;3.87;;
11735;SDS011;5924;51.398;7.088;2022-09-09T05:00:36;3.67;;;2.63;;
11735;SDS011;5924;51.398;7.088;2022-09-09T05:03:03;4.47;;;2.30;;
11735;SDS011;5924;51.398;7.088;2022-09-09T05:05:33;5.43;;;2.17;;
11735;SDS011;5924;51.398;7.088;2022-09-09T05:08:03;6.40;;;2.67;;
11735;SDS011;5924;51.398;7.088;2022-09-09T05:10:30;3.50;;;2.27;;
11735;SDS011;5924;51.398;7.088;2022-09-09T05:12:57;8.67;;;2.20;;
11735;SDS011;5924;51.398;7.088;2022-09-09T05:15:23;3.17;;;2.53;;
11735;SDS011;5924;51.398;7.088;2022-09-09T05:17:48;4.13;;;2.60;;
11735;SDS011;5924;51.398;7.088;2022-09-09T05:20:14;7.50;;;2.50;;
11735;SDS011;5924;51.398;7.088;2022-09-09T05:22:40;3.07;;;2.30;;
11735;SDS011;5924;51.398;7.088;2022-09-09T05:25:06;7.07;;;2.80;;
11735;SDS011;5924;51.398;7.088;2022-09-09T05:27:33;3.53;;;2.27;;
11735;SDS011;5924;51.398;7.088;2022-09-09T05:29:59;7.40;;;2.60;;
11735;SDS011;5924;51.398;7.088;2022-09-09T05:32:24;2.57;;;1.90;;
11735;SDS011;5924;51.398;7.088;2022-09-09T05:34:51;3.03;;;2.10;;
11735;SDS011;5924;51.398;7.088;2022-09-09T05:37:17;5.27;;;2.33;;
11735;SDS011;5924;51.398;7.088;2022-09-09T05:39:43;12.03;;;2.60;;
11735;SDS011;5924;51.398;7.088;2022-09-09T05:42:09;2.07;;;1.83;;
11735;SDS011;5924;51.398;7.088;2022-09-09T05:44:35;8.07;;;2.10;;
11735;SDS011;5924;51.398;7.088;2022-09-09T05:47:02;8.30;;;2.70;;
11735;SDS011;5924;51.398;7.088;2022-09-09T05:49:28;13.43;;;2.77;;
11735;SDS011;5924;51.398;7.088;2022-09-09T05:51:54;3.43;;;1.77;;
11735;SDS011;5924;51.398;7.088;2022-09-09T05:54:19;5.73;;;2.10;;
11735;SDS011;5924;51.398;7.088;2022-09-09T05:56:45;3.53;;;2.10;;
11735;SDS011;5924;51.398;7.088;2022-09-09T05:59:11;2.00;;;1.80;;
11735;SDS011;5924;51.398;7.088;2022-09-09T06:01:37;8.73;;;2.27;;
11735;SDS011;5924;51.398;7.088;2022-09-09T06:04:07;3.90;;;1.87;;
11735;SDS011;5924;51.398;7.088;2022-09-09T06:06:34;6.53;;;2.00;;
11735;SDS011;5924;51.398;7.088;2022-09-09T06:09:02;2.73;;;1.83;;
11735;SDS011;5924;51.398;7.088;2022-09-09T06:11:31;4.67;;;2.17;;
11735;SDS011;5924;51.398;7.088;2022-09-09T06:13:59;9.47;;;2.43;;
11735;SDS011;5924;51.398;7.088;2022-09-09T06:16:25;4.30;;;1.70;;
11735;SDS011;5924;51.398;7.088;2022-09-09T06:18:53;7.47;;;2.17;;
11735;SDS011;5924;51.398;7.088;2022-09-09T06:23:47;2.40;;;2.30;;
11735;SDS011;5924;51.398;7.088;2022-09-09T06:28:40;6.00;;;2.43;;
11735;SDS011;5924;51.398;7.088;2022-09-09T06:31:08;4.20;;;2.20;;
11735;SDS011;5924;51.398;7.088;2022-09-09T06:33:36;5.90;;;1.77;;
11735;SDS011;5924;51.398;7.088;2022-09-09T06:36:06;4.43;;;1.80;;
11735;SDS011;5924;51.398;7.088;2022-09-09T06:38:35;4.10;;;2.20;;
11735;SDS011;5924;51.398;7.088;2022-09-09T06:41:00;4.80;;;2.10;;
11735;SDS011;5924;51.398;7.088;2022-09-09T06:43:27;3.67;;;2.60;;
11735;SDS011;5924;51.398;7.088;2022-09-09T06:46:06;9.17;;;2.00;;
11735;SDS011;5924;51.398;7.088;2022-09-09T06:48:34;5.80;;;2.50;;
11735;SDS011;5924;51.398;7.088;2022-09-09T06:53:31;3.93;;;1.90;;
11735;SDS011;5924;51.398;7.088;2022-09-09T06:56:01;7.13;;;1.70;;
11735;SDS011;5924;51.398;7.088;2022-09-09T06:58:41;9.27;;;1.90;;
11735;SDS011;5924;51.398;7.088;2022-09-09T07:01:09;5.63;;;1.60;;
11735;SDS011;5924;51.398;7.088;2022-09-09T07:03:39;5.33;;;1.23;;
11735;SDS011;5924;51.398;7.088;2022-09-09T07:06:07;11.03;;;1.70;;
11735;SDS011;5924;51.398;7.088;2022-09-09T07:08:34;3.13;;;2.00;;
11735;SDS011;5924;51.398;7.088;2022-09-09T07:11:07;2.30;;;1.50;;
11735;SDS011;5924;51.398;7.088;2022-09-09T07:13:33;8.30;;;1.43;;
11735;SDS011;5924;51.398;7.088;2022-09-09T07:18:32;1.53;;;1.43;;
11735;SDS011;5924;51.398;7.088;2022-09-09T07:20:59;5.20;;;1.60;;
11735;SDS011;5924;51.398;7.088;2022-09-09T07:23:27;2.50;;;1.60;;
11735;SDS011;5924;51.398;7.088;2022-09-09T07:25:53;4.77;;;1.47;;
11735;SDS011;5924;51.398;7.088;2022-09-09T07:28:19;2.60;;;1.30;;
11735;SDS011;5924;51.398;7.088;2022-09-09T07:30:55;1.80;;;1.00;;
11735;SDS011;5924;51.398;7.088;2022-09-09T07:33:26;4.63;;;1.90;;
11735;SDS011;5924;51.398;7.088;2022-09-09T07:36:01;4.83;;;2.07;;
11735;SDS011;5924;51.398;7.088;2022-09-09T07:38:33;5.77;;;1.90;;
11735;SDS011;5924;51.398;7.088;2022-09-09T07:41:07;5.73;;;1.60;;
11735;SDS011;5924;51.398;7.088;2022-09-09T07:43:37;1.70;;;1.33;;
11735;SDS011;5924;51.398;7.088;2022-09-09T07:46:07;6.93;;;2.27;;
11735;SDS011;5924;51.398;7.088;2022-09-09T07:48:33;3.90;;;1.83;;
11735;SDS011;5924;51.398;7.088;2022-09-09T07:51:06;1.43;;;1.23;;
11735;SDS011;5924;51.398;7.088;2022-09-09T07:53:36;5.03;;;1.30;;
11735;SDS011;5924;51.398;7.088;2022-09-09T07:56:07;2.10;;;1.37;;
11735;SDS011;5924;51.398;7.088;2022-09-09T07:58:34;3.30;;;1.47;;
11735;SDS011;5924;51.398;7.088;2022-09-09T08:01:06;3.00;;;2.30;;
11735;SDS011;5924;51.398;7.088;2022-09-09T08:03:36;3.37;;;1.63;;
11735;SDS011;5924;51.398;7.088;2022-09-09T08:06:06;2.50;;;1.63;;
11735;SDS011;5924;51.398;7.088;2022-09-09T08:08:34;2.03;;;1.50;;
11735;SDS011;5924;51.398;7.088;2022-09-09T08:11:02;3.23;;;1.77;;
11735;SDS011;5924;51.398;7.088;2022-09-09T08:13:30;1.73;;;1.60;;
11735;SDS011;5924;51.398;7.088;2022-09-09T08:16:03;3.27;;;1.53;;
11735;SDS011;5924;51.398;7.088;2022-09-09T08:18:35;2.70;;;1.40;;
11735;SDS011;5924;51.398;7.088;2022-09-09T08:23:37;2.97;;;1.70;;
11735;SDS011;5924;51.398;7.088;2022-09-09T08:26:14;4.43;;;1.90;;
11735;SDS011;5924;51.398;7.088;2022-09-09T08:28:41;9.63;;;2.00;;
11735;SDS011;5924;51.398;7.088;2022-09-09T08:31:09;6.83;;;1.50;;
11735;SDS011;5924;51.398;7.088;2022-09-09T08:33:35;6.07;;;1.60;;
11735;SDS011;5924;51.398;7.088;2022-09-09T08:36:03;2.60;;;1.37;;
11735;SDS011;5924;51.398;7.088;2022-09-09T08:38:29;2.83;;;1.10;;
11735;SDS011;5924;51.398;7.088;2022-09-09T08:40:57;2.83;;;1.90;;
11735;SDS011;5924;51.398;7.088;2022-09-09T08:43:35;5.13;;;1.80;;
11735;SDS011;5924;51.398;7.088;2022-09-09T08:46:07;3.43;;;1.53;;
11735;SDS011;5924;51.398;7.088;2022-09-09T08:48:40;8.50;;;2.23;;
11735;SDS011;5924;51.398;7.088;2022-09-09T08:51:27;6.20;;;1.93;;
11735;SDS011;5924;51.398;7.088;2022-09-09T08:53:54;4.17;;;1.73;;
11735;SDS011;5924;51.398;7.088;2022-09-09T08:56:23;2.50;;;1.40;;
11735;SDS011;5924;51.398;7.088;2022-09-09T08:58:52;6.00;;;1.90;;
11735;SDS011;5924;51.398;7.088;2022-09-09T09:07:35;5.20;;;1.77;;
11735;SDS011;5924;51.398;7.088;2022-09-09T09:12:55;8.83;;;2.10;;
11735;SDS011;5924;51.398;7.088;2022-09-09T09:15:25;3.07;;;1.53;;
11735;SDS011;5924;51.398;7.088;2022-09-09T09:17:55;3.10;;;1.53;;
11735;SDS011;5924;51.398;7.088;2022-09-09T09:23:16;3.70;;;1.87;;
11735;SDS011;5924;51.398;7.088;2022-09-09T09:25:47;6.40;;;2.30;;
11735;SDS011;5924;51.398;7.088;2022-09-09T09:28:24;2.33;;;1.00;;
11735;SDS011;5924;51.398;7.088;2022-09-09T09:30:55;5.03;;;2.00;;
11735;SDS011;5924;51.398;7.088;2022-09-09T09:36:06;2.70;;;1.37;;
11735;SDS011;5924;51.398;7.088;2022-09-09T09:38:33;3.03;;;1.20;;
11735;SDS011;5924;51.398;7.088;2022-09-09T09:41:00;2.70;;;1.73;;
11735;SDS011;5924;51.398;7.088;2022-09-09T09:45:56;3.27;;;1.20;;
11735;SDS011;5924;51.398;7.088;2022-09-09T09:48:23;2.63;;;1.37;;
11735;SDS011;5924;51.398;7.088;2022-09-09T09:53:24;3.90;;;1.53;;
11735;SDS011;5924;51.398;7.088;2022-09-09T09:55:52;5.53;;;1.67;;
11735;SDS011;5924;51.398;7.088;2022-09-09T09:58:27;2.73;;;1.17;;
11735;SDS011;5924;51.398;7.088;2022-09-09T10:00:58;3.43;;;1.70;;
11735;SDS011;5924;51.398;7.088;2022-09-09T10:03:29;1.40;;;1.30;;
11735;SDS011;5924;51.398;7.088;2022-09-09T10:06:02;2.63;;;1.27;;
11735;SDS011;5924;51.398;7.088;2022-09-09T10:08:29;1.93;;;1.53;;
11735;SDS011;5924;51.398;7.088;2022-09-09T10:16:01;1.77;;;1.20;;
11735;SDS011;5924;51.398;7.088;2022-09-09T10:35:10;0.83;;;0.83;;
11735;SDS011;5924;51.398;7.088;2022-09-09T10:38:33;1.13;;;1.13;;
11735;SDS011;5924;51.398;7.088;2022-09-09T10:48:53;1.90;;;1.40;;
11735;SDS011;5924;51.398;7.088;2022-09-09T10:57:00;2.13;;;1.10;;
11735;SDS011;5924;51.398;7.088;2022-09-09T10:59:36;3.90;;;1.40;;
11735;SDS011;5924;51.398;7.088;2022-09-09T11:04:48;4.17;;;1.40;;
11735;SDS011;5924;51.398;7.088;2022-09-09T11:07:20;2.50;;;1.27;;
11735;SDS011;5924;51.398;7.088;2022-09-09T11:10:02;2.03;;;1.73;;
11735;SDS011;5924;51.398;7.088;2022-09-09T11:12:32;3.47;;;1.10;;
11735;SDS011;5924;51.398;7.088;2022-09-09T11:15:06;3.07;;;0.80;;
11735;SDS011;5924;51.398;7.088;2022-09-09T11:17:46;0.80;;;0.80;;
11735;SDS011;5924;51.398;7.088;2022-09-09T11:20:19;0.90;;;0.90;;
11735;SDS011;5924;51.398;7.088;2022-09-09T11:22:49;2.93;;;1.10;;
11735;SDS011;5924;51.398;7.088;2022-09-09T11:30:51;1.23;;;0.90;;
11735;SDS011;5924;51.398;7.088;2022-09-09T11:33:31;2.80;;;1.10;;
11735;SDS011;5924;51.398;7.088;2022-09-09T11:42:18;1.80;;;1.00;;
11735;SDS011;5924;51.398;7.088;2022-09-09T11:44:47;1.83;;;0.90;;
11735;SDS011;5924;51.398;7.088;2022-09-09T11:49:49;0.87;;;0.87;;
11735;SDS011;5924;51.398;7.088;2022-09-09T11:52:34;1.53;;;1.10;;
11735;SDS011;5924;51.398;7.088;2022-09-09T11:55:09;1.30;;;1.00;;
11735;SDS011;5924;51.398;7.088;2022-09-09T11:57:37;3.43;;;1.60;;
11735;SDS011;5924;51.398;7.088;2022-09-09T12:00:04;4.27;;;1.20;;
11735;SDS011;5924;51.398;7.088;2022-09-09T12:02:31;1.43;;;1.20;;
11735;SDS011;5924;51.398;7.088;2022-09-09T12:07:54;3.70;;;1.27;;
11735;SDS011;5924;51.398;7.088;2022-09-09T12:10:26;1.80;;;1.23;;
11735;SDS011;5924;51.398;7.088;2022-09-09T12:13:16;1.27;;;1.07;;
11735;SDS011;5924;51.398;7.088;2022-09-09T12:15:55;2.70;;;1.10;;
11735;SDS011;5924;51.398;7.088;2022-09-09T12:18:23;1.50;;;0.90;;
11735;SDS011;5924;51.398;7.088;2022-09-09T12:24:25;1.80;;;1.00;;
11735;SDS011;5924;51.398;7.088;2022-09-09T12:26:58;1.17;;;1.00;;
11735;SDS011;5924;51.398;7.088;2022-09-09T12:29:51;1.80;;;1.00;;
11735;SDS011;5924;51.398;7.088;2022-09-09T12:32:24;4.23;;;0.90;;
11735;SDS011;5924;51.398;7.088;2022-09-09T12:34:54;1.67;;;1.10;;
11735;SDS011;5924;51.398;7.088;2022-09-09T12:37:42;1.43;;;0.97;;
11735;SDS011;5924;51.398;7.088;2022-09-09T12:42:45;1.33;;;1.17;;
11735;SDS011;5924;51.398;7.088;2022-09-09T12:45:21;1.27;;;1.17;;
11735;SDS011;5924;51.398;7.088;2022-09-09T12:47:54;1.60;;;1.30;;
11735;SDS011;5924;51.398;7.088;2022-09-09T12:50:30;3.73;;;1.07;;
11735;SDS011;5924;51.398;7.088;2022-09-09T12:53:02;1.57;;;0.90;;
11735;SDS011;5924;51.398;7.088;2022-09-09T12:55:35;1.13;;;0.70;;
11735;SDS011;5924;51.398;7.088;2022-09-09T12:58:03;2.97;;;0.90;;
11735;SDS011;5924;51.398;7.088;2022-09-09T13:00:31;0.90;;;0.90;;
11735;SDS011;5924;51.398;7.088;2022-09-09T13:03:13;1.27;;;1.03;;
11735;SDS011;5924;51.398;7.088;2022-09-09T13:05:41;1.60;;;0.90;;
11735;SDS011;5924;51.398;7.088;2022-09-09T13:08:11;3.40;;;1.20;;
11735;SDS011;5924;51.398;7.088;2022-09-09T13:13:18;0.70;;;0.70;;
11735;SDS011;5924;51.398;7.088;2022-09-09T13:15:53;1.73;;;1.20;;
11735;SDS011;5924;51.398;7.088;2022-09-09T13:18:22;1.03;;;0.90;;
11735;SDS011;5924;51.398;7.088;2022-09-09T13:20:51;1.10;;;0.93;;
11735;SDS011;5924;51.398;7.088;2022-09-09T13:23:18;3.13;;;1.10;;
11735;SDS011;5924;51.398;7.088;2022-09-09T13:25:59;2.10;;;1.10;;
11735;SDS011;5924;51.398;7.088;2022-09-09T13:28:28;2.23;;;1.20;;
11735;SDS011;5924;51.398;7.088;2022-09-09T13:31:01;2.23;;;1.40;;
11735;SDS011;5924;51.398;7.088;2022-09-09T13:33:29;4.33;;;2.10;;
11735;SDS011;5924;51.398;7.088;2022-09-09T13:36:06;8.30;;;1.97;;
11735;SDS011;5924;51.398;7.088;2022-09-09T13:38:38;5.97;;;2.10;;
11735;SDS011;5924;51.398;7.088;2022-09-09T13:41:19;3.50;;;2.33;;
11735;SDS011;5924;51.398;7.088;2022-09-09T13:43:50;5.90;;;2.37;;
11735;SDS011;5924;51.398;7.088;2022-09-09T13:48:58;2.20;;;1.47;;
11735;SDS011;5924;51.398;7.088;2022-09-09T13:51:44;3.07;;;1.80;;
11735;SDS011;5924;51.398;7.088;2022-09-09T13:54:13;3.93;;;2.07;;
11735;SDS011;5924;51.398;7.088;2022-09-09T13:56:40;3.63;;;2.00;;
11735;SDS011;5924;51.398;7.088;2022-09-09T13:59:11;3.57;;;1.90;;
11735;SDS011;5924;51.398;7.088;2022-09-09T14:01:39;2.73;;;1.67;;
11735;SDS011;5924;51.398;7.088;2022-09-09T14:04:05;2.67;;;1.40;;
11735;SDS011;5924;51.398;7.088;2022-09-09T14:06:31;2.13;;;1.77;;
11735;SDS011;5924;51.398;7.088;2022-09-09T14:09:00;3.47;;;1.57;;
11735;SDS011;5924;51.398;7.088;2022-09-09T14:11:25;4.10;;;1.97;;
11735;SDS011;5924;51.398;7.088;2022-09-09T14:13:51;3.83;;;1.30;;
11735;SDS011;5924;51.398;7.088;2022-09-09T14:16:17;3.80;;;1.80;;
11735;SDS011;5924;51.398;7.088;2022-09-09T14:18:43;1.10;;;0.90;;
11735;SDS011;5924;51.398;7.088;2022-09-09T14:21:10;1.43;;;1.33;;
11735;SDS011;5924;51.398;7.088;2022-09-09T14:23:36;1.83;;;1.70;;
11735;SDS011;5924;51.398;7.088;2022-09-09T14:26:03;2.60;;;1.40;;
11735;SDS011;5924;51.398;7.088;2022-09-09T14:28:32;4.43;;;1.27;;
11735;SDS011;5924;51.398;7.088;2022-09-09T14:31:03;8.13;;;1.50;;
11735;SDS011;5924;51.398;7.088;2022-09-09T14:33:30;2.20;;;1.10;;
11735;SDS011;5924;51.398;7.088;2022-09-09T14:35:56;1.00;;;1.00;;
11735;SDS011;5924;51.398;7.088;2022-09-09T14:38:28;4.07;;;1.50;;
11735;SDS011;5924;51.398;7.088;2022-09-09T14:40:55;4.50;;;1.83;;
11735;SDS011;5924;51.398;7.088;2022-09-09T14:43:21;4.13;;;1.60;;
11735;SDS011;5924;51.398;7.088;2022-09-09T14:45:47;3.83;;;1.40;;
11735;SDS011;5924;51.398;7.088;2022-09-09T14:48:16;1.47;;;1.20;;
11735;SDS011;5924;51.398;7.088;2022-09-09T14:50:42;1.33;;;0.93;;
11735;SDS011;5924;51.398;7.088;2022-09-09T14:53:08;3.03;;;1.30;;
11735;SDS011;5924;51.398;7.088;2022-09-09T14:55:34;2.53;;;1.00;;
11735;SDS011;5924;51.398;7.088;2022-09-09T14:58:01;0.90;;;0.90;;
11735;SDS011;5924;51.398;7.088;2022-09-09T15:00:26;2.70;;;1.13;;
11735;SDS011;5924;51.398;7.088;2022-09-09T15:02:52;1.53;;;1.43;;
11735;SDS011;5924;51.398;7.088;2022-09-09T15:05:19;3.50;;;1.67;;
11735;SDS011;5924;51.398;7.088;2022-09-09T15:07:45;5.60;;;4.47;;
11735;SDS011;5924;51.398;7.088;2022-09-09T15:10:11;2.33;;;2.00;;
11735;SDS011;5924;51.398;7.088;2022-09-09T15:12:37;2.07;;;1.90;;
11735;SDS011;5924;51.398;7.088;2022-09-09T15:15:03;4.10;;;2.17;;
11735;SDS011;5924;51.398;7.088;2022-09-09T15:17:30;3.70;;;3.40;;
11735;SDS011;5924;51.398;7.088;2022-09-09T15:19:55;3.30;;;3.10;;
11735;SDS011;5924;51.398;7.088;2022-09-09T15:22:21;1.70;;;1.00;;
11735;SDS011;5924;51.398;7.088;2022-09-09T15:24:49;0.70;;;0.70;;
11735;SDS011;5924;51.398;7.088;2022-09-09T15:27:14;0.87;;;0.87;;
11735;SDS011;5924;51.398;7.088;2022-09-09T15:29:41;0.60;;;0.60;;
11735;SDS011;5924;51.398;7.088;2022-09-09T15:32:06;0.60;;;0.60;;
11735;SDS011;5924;51.398;7.088;2022-09-09T15:34:32;0.63;;;0.63;;
11735;SDS011;5924;51.398;7.088;2022-09-09T15:36:58;0.83;;;0.60;;
11735;SDS011;5924;51.398;7.088;2022-09-09T15:39:24;0.80;;;0.50;;
11735;SDS011;5924;51.398;7.088;2022-09-09T15:41:50;1.73;;;1.10;;
11735;SDS011;5924;51.398;7.088;2022-09-09T15:44:16;1.73;;;0.73;;
11735;SDS011;5924;51.398;7.088;2022-09-09T15:46:50;1.03;;;0.70;;
11735;SDS011;5924;51.398;7.088;2022-09-09T15:49:19;1.43;;;0.50;;
11735;SDS011;5924;51.398;7.088;2022-09-09T15:51:53;2.00;;;0.60;;
11735;SDS011;5924;51.398;7.088;2022-09-09T15:54:24;3.57;;;0.60;;
11735;SDS011;5924;51.398;7.088;2022-09-09T15:56:52;1.80;;;0.63;;
11735;SDS011;5924;51.398;7.088;2022-09-09T15:59:22;0.53;;;0.53;;
11735;SDS011;5924;51.398;7.088;2022-09-09T16:01:49;1.17;;;0.50;;
11735;SDS011;5924;51.398;7.088;2022-09-09T16:04:16;1.50;;;0.40;;
11735;SDS011;5924;51.398;7.088;2022-09-09T16:06:51;0.70;;;0.70;;
11735;SDS011;5924;51.398;7.088;2022-09-09T16:09:18;0.70;;;0.70;;
11735;SDS011;5924;51.398;7.088;2022-09-09T16:11:44;0.73;;;0.60;;
11735;SDS011;5924;51.398;7.088;2022-09-09T16:14:10;1.43;;;0.50;;
11735;SDS011;5924;51.398;7.088;2022-09-09T16:16:36;0.60;;;0.60;;
11735;SDS011;5924;51.398;7.088;2022-09-09T16:19:03;0.80;;;0.80;;
11735;SDS011;5924;51.398;7.088;2022-09-09T16:21:45;0.70;;;0.70;;
11735;SDS011;5924;51.398;7.088;2022-09-09T16:24:13;2.60;;;0.93;;
11735;SDS011;5924;51.398;7.088;2022-09-09T16:26:42;3.27;;;1.17;;
11735;SDS011;5924;51.398;7.088;2022-09-09T16:29:12;1.10;;;0.83;;
11735;SDS011;5924;51.398;7.088;2022-09-09T16:31:39;0.70;;;0.70;;
11735;SDS011;5924;51.398;7.088;2022-09-09T16:34:06;1.90;;;0.87;;
11735;SDS011;5924;51.398;7.088;2022-09-09T16:36:33;2.10;;;1.07;;
11735;SDS011;5924;51.398;7.088;2022-09-09T16:39:02;0.87;;;0.87;;
11735;SDS011;5924;51.398;7.088;2022-09-09T16:41:30;0.80;;;0.80;;
11735;SDS011;5924;51.398;7.088;2022-09-09T16:46:24;1.33;;;1.00;;
11735;SDS011;5924;51.398;7.088;2022-09-09T16:48:52;1.43;;;1.33;;
11735;SDS011;5924;51.398;7.088;2022-09-09T16:51:24;1.80;;;1.10;;
11735;SDS011;5924;51.398;7.088;2022-09-09T16:53:52;1.40;;;1.30;;
11735;SDS011;5924;51.398;7.088;2022-09-09T16:56:20;1.27;;;1.10;;
11735;SDS011;5924;51.398;7.088;2022-09-09T16:58:54;1.37;;;1.30;;
11735;SDS011;5924;51.398;7.088;2022-09-09T17:01:28;1.70;;;1.50;;
11735;SDS011;5924;51.398;7.088;2022-09-09T17:03:57;2.97;;;1.63;;
11735;SDS011;5924;51.398;7.088;2022-09-09T17:06:24;1.80;;;1.70;;
11735;SDS011;5924;51.398;7.088;2022-09-09T17:08:57;1.30;;;1.30;;
11735;SDS011;5924;51.398;7.088;2022-09-09T17:11:26;1.43;;;1.33;;
11735;SDS011;5924;51.398;7.088;2022-09-09T17:13:54;1.43;;;1.40;;
11735;SDS011;5924;51.398;7.088;2022-09-09T17:16:21;2.10;;;1.27;;
11735;SDS011;5924;51.398;7.088;2022-09-09T17:18:51;2.87;;;1.57;;
11735;SDS011;5924;51.398;7.088;2022-09-09T17:21:18;2.20;;;1.20;;
11735;SDS011;5924;51.398;7.088;2022-09-09T17:23:45;2.70;;;1.53;;
11735;SDS011;5924;51.398;7.088;2022-09-09T17:26:13;1.80;;;1.60;;
11735;SDS011;5924;51.398;7.088;2022-09-09T17:28:41;1.70;;;1.60;;
11735;SDS011;5924;51.398;7.088;2022-09-09T17:31:08;4.60;;;1.70;;
11735;SDS011;5924;51.398;7.088;2022-09-09T17:33:35;2.57;;;1.50;;
11735;SDS011;5924;51.398;7.088;2022-09-09T17:36:07;1.70;;;1.60;;
11735;SDS011;5924;51.398;7.088;2022-09-09T17:38:33;1.90;;;1.80;;
11735;SDS011;5924;51.398;7.088;2022-09-09T17:41:02;1.73;;;1.63;;